Time;durP1;ratioP1;P1;durP2;ratioP2;P2;SDS_P1;SDS_P2;PMS_P1;PMS_P2;Temp;Humidity;BMP_temperature;BMP_pressure;BME280_temperature;BME280_humidity;BME280_pressure;Samples;Min_cycle;Max_cycle;Signal;HPM_P1;HPM_P2
2022/07/19 00:01:45;;;;;;;12.82;4.70;;;;;;;21.78;46.81;101254.31;5033888;28;20506;-46
2022/07/19 00:04:11;;;;;;;10.40;4.32;;;;;;;21.82;47.60;101255.44;5033067;28;20112;-43
2022/07/19 00:06:37;;;;;;;13.13;4.40;;;;;;;21.61;47.64;101257.28;5034339;28;20025;-44
2022/07/19 00:09:06;;;;;;;17.00;5.43;;;;;;;21.55;49.19;101255.66;5030572;28;20025;-44
2022/07/19 00:11:32;;;;;;;16.25;5.32;;;;;;;21.42;48.31;101255.34;5029942;28;20034;-47
2022/07/19 00:13:59;;;;;;;11.70;5.20;;;;;;;21.59;48.56;101258.63;5033251;28;20029;-45
2022/07/19 00:16:25;;;;;;;12.15;4.38;;;;;;;21.32;48.07;101262.41;5034337;28;20034;-44
2022/07/19 00:18:51;;;;;;;12.38;5.10;;;;;;;21.21;49.44;101259.84;5032042;28;20108;-44
2022/07/19 00:21:17;;;;;;;9.93;4.10;;;;;;;20.77;49.73;101239.28;5032720;28;20033;-44
2022/07/19 00:23:44;;;;;;;14.88;5.38;;;;;;;20.49;50.53;101236.94;5034063;28;20112;-45
2022/07/19 00:26:10;;;;;;;9.32;4.18;;;;;;;20.29;50.00;101254.72;5034220;28;20029;-45
2022/07/19 00:28:36;;;;;;;11.18;4.38;;;;;;;20.49;50.34;101253.25;5034068;28;20112;-43
2022/07/19 00:31:04;;;;;;;12.48;4.38;;;;;;;19.93;50.34;101250.91;5016141;28;20022;-45
2022/07/19 00:33:30;;;;;;;16.33;5.10;;;;;;;19.76;52.20;101258.31;5033960;28;20029;-46
2022/07/19 00:35:56;;;;;;;10.18;4.68;;;;;;;19.76;53.41;101259.13;5034093;28;20029;-45
2022/07/19 00:38:23;;;;;;;12.30;4.43;;;;;;;19.58;53.67;101255.94;5015337;28;20487;-45
2022/07/19 00:40:49;;;;;;;13.52;4.60;;;;;;;19.52;53.24;101260.50;5013794;28;20471;-43
2022/07/19 00:43:15;;;;;;;10.25;4.65;;;;;;;19.37;53.64;101253.00;5013933;28;20046;-43
2022/07/19 00:45:41;;;;;;;12.27;4.65;;;;;;;19.26;54.55;101246.63;5014041;28;20029;-43
2022/07/19 00:48:08;;;;;;;14.38;5.10;;;;;;;18.87;54.09;101242.34;5014042;28;20510;-44
2022/07/19 00:50:34;;;;;;;14.13;5.22;;;;;;;18.85;54.74;101244.50;5013614;28;20529;-45
2022/07/19 00:53:04;;;;;;;13.38;4.75;;;;;;;18.93;55.58;101244.91;5013686;28;20049;-44
2022/07/19 00:55:32;;;;;;;15.75;4.15;;;;;;;18.59;56.62;101240.56;5013904;28;20053;-43
2022/07/19 00:58:00;;;;;;;12.05;4.65;;;;;;;18.55;57.13;101239.47;5014238;28;20030;-46
2022/07/19 01:00:28;;;;;;;15.70;4.00;;;;;;;18.22;57.83;101240.31;5013507;28;20025;-44
2022/07/19 01:02:55;;;;;;;13.63;5.10;;;;;;;18.09;59.04;101247.69;5013747;28;20029;-42
2022/07/19 01:05:21;;;;;;;18.55;5.50;;;;;;;18.31;59.17;101252.34;5013652;28;20096;-45
2022/07/19 01:07:47;;;;;;;16.48;5.32;;;;;;;18.18;59.26;101240.78;5012450;28;20501;-46
2022/07/19 01:10:15;;;;;;;15.75;5.53;;;;;;;18.09;60.04;101244.97;5013189;28;20109;-43
2022/07/19 01:12:42;;;;;;;20.75;6.40;;;;;;;18.10;59.57;101241.22;5001886;28;20032;-43
2022/07/19 01:15:21;;;;;;;14.38;4.72;;;;;;;17.94;60.49;101255.56;5013206;28;20026;-44
2022/07/19 01:17:48;;;;;;;20.20;5.53;;;;;;;18.11;59.81;101255.59;5012899;28;20030;-43
2022/07/19 01:20:14;;;;;;;23.88;6.38;;;;;;;18.07;59.50;101252.53;5012856;28;20108;-43
2022/07/19 01:22:44;;;;;;;22.80;6.20;;;;;;;18.04;59.41;101250.31;5013249;28;20367;-43
2022/07/19 01:25:11;;;;;;;17.50;5.30;;;;;;;18.04;59.62;101263.03;5013216;28;20473;-42
2022/07/19 01:27:46;;;;;;;17.67;6.20;;;;;;;18.12;59.43;101258.03;5013035;28;20030;-45
2022/07/19 01:30:14;;;;;;;23.08;6.25;;;;;;;17.94;59.65;101256.38;5012491;28;20038;-45
2022/07/19 01:32:41;;;;;;;21.55;6.43;;;;;;;17.77;59.80;101258.25;5013061;28;20411;-43
2022/07/19 01:35:08;;;;;;;19.77;6.28;;;;;;;17.78;60.39;101250.94;5012574;28;20053;-43
2022/07/19 01:37:35;;;;;;;25.33;6.13;;;;;;;17.72;61.08;101260.88;5012877;28;20018;-45
2022/07/19 01:40:06;;;;;;;26.27;6.82;;;;;;;17.63;61.14;101260.41;5012495;28;20056;-42
2022/07/19 01:42:32;;;;;;;18.17;5.80;;;;;;;17.46;61.43;101253.28;5012676;28;20042;-42
2022/07/19 01:44:58;;;;;;;21.73;5.68;;;;;;;17.48;61.76;101261.97;5012937;28;20034;-44
2022/07/19 01:47:25;;;;;;;19.95;5.75;;;;;;;17.73;61.52;101253.56;5012791;28;20475;-42
2022/07/19 01:49:52;;;;;;;23.75;6.88;;;;;;;17.75;61.07;101257.66;5012273;28;20064;-43
2022/07/19 01:52:19;;;;;;;22.85;5.82;;;;;;;17.70;60.96;101257.53;5012441;28;20080;-42
2022/07/19 01:54:45;;;;;;;25.02;6.13;;;;;;;17.59;61.19;101251.09;5013026;28;20121;-43
2022/07/19 01:57:11;;;;;;;23.60;6.47;;;;;;;17.27;62.04;101255.38;5012450;28;20080;-42
2022/07/19 01:59:38;;;;;;;21.48;5.93;;;;;;;17.48;61.84;101246.56;5012686;28;20096;-44
2022/07/19 02:02:05;;;;;;;24.35;6.13;;;;;;;17.46;61.91;101254.13;5012047;28;20065;-42
2022/07/19 02:04:32;;;;;;;23.15;6.10;;;;;;;17.36;61.59;101260.16;5012250;28;20026;-42
2022/07/19 02:06:58;;;;;;;20.88;6.53;;;;;;;17.46;62.25;101254.13;5012203;28;20159;-43
2022/07/19 02:09:25;;;;;;;22.30;5.95;;;;;;;17.23;62.40;101248.78;5012331;28;20022;-42
2022/07/19 02:11:51;;;;;;;24.60;6.68;;;;;;;17.29;62.63;101250.53;5011902;28;20434;-44
2022/07/19 02:14:18;;;;;;;21.05;6.40;;;;;;;16.89;64.15;101256.75;5012311;28;20033;-43
2022/07/19 02:16:44;;;;;;;19.02;5.40;;;;;;;17.28;63.02;101252.41;5012317;28;20022;-45
2022/07/19 02:19:11;;;;;;;19.65;6.65;;;;;;;17.56;62.15;101253.50;5011970;28;20030;-42
2022/07/19 02:21:38;;;;;;;18.52;5.22;;;;;;;17.90;60.55;101240.88;5012100;28;20045;-42
2022/07/19 02:24:07;;;;;;;23.50;6.03;;;;;;;17.84;60.79;101245.38;5012570;28;20033;-45
2022/07/19 02:26:34;;;;;;;19.88;5.18;;;;;;;18.04;60.29;101244.88;5012116;28;20076;-44
2022/07/19 02:29:00;;;;;;;26.33;6.60;;;;;;;17.89;60.35;101242.75;5012101;28;20104;-45
2022/07/19 02:31:26;;;;;;;17.33;5.07;;;;;;;18.04;60.14;101233.22;5011976;28;20034;-44
2022/07/19 02:33:53;;;;;;;21.17;5.70;;;;;;;17.81;60.58;101245.03;5015083;28;20104;-42
2022/07/19 02:36:19;;;;;;;26.45;6.82;;;;;;;17.74;60.84;101249.78;5023766;28;20034;-43
2022/07/19 02:38:45;;;;;;;22.30;6.43;;;;;;;17.54;61.70;101245.59;5024377;28;20025;-45
2022/07/19 02:41:13;;;;;;;23.83;6.32;;;;;;;17.80;61.31;101246.91;5019142;28;20030;-42
2022/07/19 02:43:40;;;;;;;25.23;7.53;;;;;;;17.76;61.17;101253.88;5011721;28;20053;-43
2022/07/19 02:46:07;;;;;;;27.13;6.13;;;;;;;17.63;61.63;101236.03;5019676;28;20033;-45
2022/07/19 02:48:33;;;;;;;26.88;6.05;;;;;;;17.77;61.12;101244.72;5025158;28;20026;-45
2022/07/19 02:50:59;;;;;;;23.48;5.82;;;;;;;17.72;61.04;101252.75;5031334;28;20025;-42
2022/07/19 02:53:25;;;;;;;32.08;6.32;;;;;;;17.62;61.24;101247.94;5031095;28;20661;-42
2022/07/19 02:55:51;;;;;;;23.77;6.90;;;;;;;17.57;61.75;101249.72;5031485;28;20431;-42
2022/07/19 02:58:18;;;;;;;26.38;5.45;;;;;;;17.58;61.81;101254.06;5016507;28;20475;-42
2022/07/19 03:00:44;;;;;;;20.50;6.43;;;;;;;16.94;64.04;101253.34;5026035;28;20128;-42
2022/07/19 03:05:56;;;;;;;29.13;7.03;;;;;;;16.63;65.36;101247.22;5031459;28;20028;-43
2022/07/19 03:08:22;;;;;;;23.20;6.28;;;;;;;16.37;66.25;101251.22;5029457;28;20454;-44
2022/07/19 03:10:48;;;;;;;31.95;7.38;;;;;;;16.10;67.58;101246.28;5010653;28;20124;-42
2022/07/19 03:13:15;;;;;;;26.20;7.07;;;;;;;16.05;67.78;101254.25;5011950;28;20117;-43
2022/07/19 03:15:41;;;;;;;28.73;7.20;;;;;;;15.88;68.47;101257.81;5011673;28;20463;-43
2022/07/19 03:18:07;;;;;;;27.13;7.57;;;;;;;15.69;69.46;101249.81;5011118;28;20057;-42
2022/07/19 03:20:34;;;;;;;30.48;7.25;;;;;;;15.83;69.02;101250.44;5011264;28;20025;-42
2022/07/19 03:23:00;;;;;;;31.10;8.40;;;;;;;15.63;69.78;101250.72;5029483;28;20056;-43
2022/07/19 03:25:26;;;;;;;33.67;7.20;;;;;;;15.58;70.11;101242.47;5031452;28;20474;-43
2022/07/19 03:27:53;;;;;;;35.92;8.70;;;;;;;15.26;71.36;101253.44;5003860;28;20030;-44
2022/07/19 03:30:20;;;;;;;34.65;8.18;;;;;;;15.26;71.59;101255.34;5011296;28;20116;-42
2022/07/19 03:32:46;;;;;;;29.08;8.18;;;;;;;15.21;71.98;101255.19;5031288;28;20053;-41
2022/07/19 03:35:12;;;;;;;25.02;7.40;;;;;;;15.27;71.70;101257.81;5035125;28;20022;-42
2022/07/19 03:37:38;;;;;;;30.80;7.07;;;;;;;15.23;72.20;101258.50;5024558;28;20573;-43
2022/07/19 03:40:05;;;;;;;23.52;7.35;;;;;;;15.07;72.60;101251.84;5020008;28;20025;-42
2022/07/19 03:42:32;;;;;;;31.45;8.40;;;;;;;15.07;72.80;101246.44;5021333;28;20129;-42
2022/07/19 03:44:58;;;;;;;30.88;6.68;;;;;;;14.98;73.13;101247.78;5025351;28;20500;-42
2022/07/19 03:47:24;;;;;;;30.58;7.38;;;;;;;15.02;72.90;101254.38;5031200;28;20064;-43
2022/07/19 03:49:50;;;;;;;27.25;7.07;;;;;;;14.88;73.20;101244.78;5018513;28;20057;-42
2022/07/19 03:52:17;;;;;;;27.05;8.07;;;;;;;14.97;72.76;101241.56;5014723;28;20022;-42
2022/07/19 03:54:43;;;;;;;31.73;7.10;;;;;;;14.88;73.36;101253.72;5014647;28;20021;-44
2022/07/19 03:57:09;;;;;;;38.00;7.05;;;;;;;14.75;73.52;101243.06;5033675;28;20021;-43
2022/07/19 03:59:35;;;;;;;32.50;6.82;;;;;;;14.86;73.21;101245.03;5033997;28;20030;-42
2022/07/19 04:02:01;;;;;;;31.60;7.20;;;;;;;14.81;73.39;101247.56;5017850;28;20536;-42
2022/07/19 04:04:27;;;;;;;30.70;7.22;;;;;;;14.69;73.97;101247.47;5013974;28;20033;-44
2022/07/19 04:06:54;;;;;;;30.20;6.63;;;;;;;14.63;74.46;101261.03;5020852;28;20017;-43
2022/07/19 04:09:20;;;;;;;26.38;6.25;;;;;;;14.75;74.36;101261.94;5033398;28;20113;-42
2022/07/19 04:11:46;;;;;;;29.73;7.45;;;;;;;14.58;74.89;101264.38;5032567;28;20060;-42
2022/07/19 04:14:12;;;;;;;27.13;7.93;;;;;;;14.65;74.78;101261.63;5032867;28;20084;-45
2022/07/19 04:16:39;;;;;;;26.80;8.13;;;;;;;14.69;74.71;101271.72;5033026;28;20026;-43
2022/07/19 04:19:05;;;;;;;26.33;6.82;;;;;;;14.57;75.20;101264.63;5033006;28;20037;-43
2022/07/19 04:21:31;;;;;;;35.55;7.45;;;;;;;14.51;75.53;101277.09;5033872;28;20056;-43
2022/07/19 04:23:57;;;;;;;31.77;9.35;;;;;;;14.52;75.40;101281.44;5031514;28;20489;-42
2022/07/19 04:26:24;;;;;;;31.27;7.68;;;;;;;14.37;75.88;101281.72;5033957;28;20550;-43
2022/07/19 04:28:50;;;;;;;29.75;7.93;;;;;;;14.53;75.21;101291.97;5032514;28;20049;-42
2022/07/19 04:31:16;;;;;;;32.78;7.90;;;;;;;14.42;75.52;101298.06;5029603;28;20040;-42
2022/07/19 04:33:43;;;;;;;35.60;8.07;;;;;;;14.44;75.51;101301.38;5032881;28;20029;-42
2022/07/19 04:36:09;;;;;;;26.63;8.50;;;;;;;14.36;75.72;101309.72;5033717;28;20032;-42
2022/07/19 04:38:35;;;;;;;31.00;7.40;;;;;;;14.43;75.52;101313.16;5032532;28;20021;-42
2022/07/19 04:41:01;;;;;;;27.17;6.90;;;;;;;14.48;75.28;101321.44;5032259;28;20359;-43
2022/07/19 04:43:28;;;;;;;27.33;6.53;;;;;;;14.47;75.35;101317.09;5033117;28;20048;-43
2022/07/19 04:45:54;;;;;;;37.22;8.50;;;;;;;14.40;75.34;101329.78;5032505;28;20025;-45
2022/07/19 04:48:20;;;;;;;31.05;6.63;;;;;;;14.46;75.46;101333.47;5032973;28;20030;-42
2022/07/19 04:50:46;;;;;;;27.92;7.50;;;;;;;14.40;75.95;101327.09;5033356;28;20045;-43
2022/07/19 04:53:12;;;;;;;28.42;7.57;;;;;;;14.51;75.40;101331.78;5032415;28;20033;-42
2022/07/19 04:55:38;;;;;;;31.90;7.82;;;;;;;14.43;75.26;101336.59;5033797;28;20351;-43
2022/07/19 04:58:05;;;;;;;26.23;6.95;;;;;;;14.45;75.31;101345.28;5032145;28;20470;-44
2022/07/19 05:00:31;;;;;;;35.38;7.20;;;;;;;14.35;75.75;101340.38;5022533;28;20092;-43
2022/07/19 05:02:57;;;;;;;31.05;7.15;;;;;;;14.40;75.39;101343.25;5032965;28;20037;-42
2022/07/19 05:05:24;;;;;;;33.00;8.38;;;;;;;14.31;75.70;101347.25;5032371;28;20049;-43
2022/07/19 05:07:50;;;;;;;29.55;6.80;;;;;;;14.49;74.72;101349.19;5031920;28;20104;-41
2022/07/19 05:10:17;;;;;;;29.35;7.38;;;;;;;14.52;74.62;101360.38;5031846;28;20652;-43
2022/07/19 05:12:43;;;;;;;26.40;7.07;;;;;;;14.49;74.75;101347.38;5032843;28;20482;-45
2022/07/19 05:15:10;;;;;;;36.85;6.40;;;;;;;14.46;74.59;101345.06;5033101;28;20021;-42
2022/07/19 05:17:36;;;;;;;24.77;6.43;;;;;;;14.52;74.51;101352.28;5030404;28;20037;-44
2022/07/19 05:20:04;;;;;;;34.83;7.10;;;;;;;14.56;73.99;101352.69;5030207;28;20025;-42
2022/07/19 05:22:31;;;;;;;25.67;7.60;;;;;;;14.46;74.58;101355.00;5031666;28;20057;-43
2022/07/19 05:24:57;;;;;;;29.08;6.60;;;;;;;14.49;74.53;101347.38;5032636;28;20048;-43
2022/07/19 05:27:23;;;;;;;22.77;6.88;;;;;;;14.47;74.22;101349.44;5031302;28;20029;-43
2022/07/19 05:29:50;;;;;;;25.67;7.03;;;;;;;14.56;74.63;101350.00;5031388;28;20022;-43
2022/07/19 05:32:16;;;;;;;24.42;7.00;;;;;;;14.46;74.44;101353.13;5032705;28;20128;-43
2022/07/19 05:34:43;;;;;;;24.95;6.53;;;;;;;14.45;74.57;101351.50;5031800;28;20026;-42
2022/07/19 05:37:09;;;;;;;29.48;7.57;;;;;;;14.35;75.06;101350.34;5032615;28;20068;-43
2022/07/19 05:39:35;;;;;;;31.58;6.85;;;;;;;14.40;74.61;101342.41;5030898;28;20076;-42
2022/07/19 05:42:01;;;;;;;28.48;6.50;;;;;;;14.33;75.08;101347.03;5031007;28;20033;-45
2022/07/19 05:44:28;;;;;;;32.30;7.20;;;;;;;14.38;74.97;101350.72;5030422;28;20381;-44
2022/07/19 05:46:54;;;;;;;31.35;7.68;;;;;;;14.38;75.05;101348.03;5031267;28;20032;-41
2022/07/19 05:49:20;;;;;;;20.48;6.63;;;;;;;14.41;74.75;101344.88;5031048;28;20048;-43
2022/07/19 05:51:46;;;;;;;28.17;6.80;;;;;;;14.39;74.99;101352.38;5031404;28;20037;-42
2022/07/19 05:54:12;;;;;;;27.98;7.05;;;;;;;14.39;75.29;101349.69;5030397;28;20108;-41
2022/07/19 05:56:39;;;;;;;27.33;7.30;;;;;;;14.29;75.38;101351.22;5031225;28;20470;-42
2022/07/19 05:59:05;;;;;;;30.05;7.60;;;;;;;14.29;75.57;101348.50;5030049;28;20029;-42
2022/07/19 06:01:31;;;;;;;24.40;6.93;;;;;;;14.27;75.53;101343.34;5012184;28;20504;-42
2022/07/19 06:03:59;;;;;;;21.20;6.43;;;;;;;14.22;76.04;101343.19;5017602;28;20099;-43
2022/07/19 06:06:31;;;;;;;37.80;7.53;;;;;;;14.24;75.91;101349.97;5031194;28;20538;-41
2022/07/19 06:08:58;;;;;;;28.50;6.88;;;;;;;14.25;76.02;101351.63;5031166;28;20041;-43
2022/07/19 06:11:25;;;;;;;22.75;6.97;;;;;;;14.17;76.21;101343.81;5031594;28;20021;-42
2022/07/19 06:13:52;;;;;;;25.02;7.25;;;;;;;14.11;76.56;101344.69;5030909;28;20497;-41
2022/07/19 06:16:18;;;;;;;28.27;7.57;;;;;;;13.93;77.31;101350.78;5030749;28;20046;-43
2022/07/19 06:18:45;;;;;;;28.45;7.22;;;;;;;13.96;77.12;101346.84;5030984;28;20516;-42
2022/07/19 06:21:14;;;;;;;28.65;7.38;;;;;;;13.89;77.79;101354.16;5030587;28;20079;-41
2022/07/19 06:23:41;;;;;;;22.67;6.45;;;;;;;13.92;77.42;101353.69;5031479;28;20033;-41
2022/07/19 06:26:09;;;;;;;27.70;7.13;;;;;;;13.94;77.47;101348.94;5031290;28;20036;-42
2022/07/19 06:28:35;;;;;;;19.42;6.00;;;;;;;13.99;77.18;101346.41;5031502;28;20021;-41
2022/07/19 06:31:02;;;;;;;35.42;6.75;;;;;;;13.97;77.08;101343.94;5030707;28;20500;-42
2022/07/19 06:33:28;;;;;;;26.75;7.35;;;;;;;13.97;77.03;101340.44;5031623;28;20033;-42
2022/07/19 06:35:54;;;;;;;32.50;7.28;;;;;;;14.04;77.04;101348.44;5030563;28;20021;-42
2022/07/19 06:38:20;;;;;;;24.67;6.78;;;;;;;13.95;77.32;101345.22;5031550;28;20026;-41
2022/07/19 06:40:47;;;;;;;33.67;7.88;;;;;;;14.03;77.02;101352.19;5030257;28;20116;-42
2022/07/19 06:43:13;;;;;;;39.85;7.82;;;;;;;13.95;77.23;101354.09;5031361;28;20045;-42
2022/07/19 06:45:39;;;;;;;28.17;7.05;;;;;;;13.92;77.46;101351.84;5029804;28;20079;-41
2022/07/19 06:48:06;;;;;;;33.60;6.60;;;;;;;13.95;77.46;101356.81;5013144;28;20024;-42
2022/07/19 06:50:32;;;;;;;26.20;7.30;;;;;;;14.02;77.12;101355.94;5031355;28;20087;-44
2022/07/19 06:52:58;;;;;;;26.75;6.25;;;;;;;13.88;77.48;101361.41;5030516;28;20088;-42
2022/07/19 06:55:25;;;;;;;32.40;7.43;;;;;;;13.89;77.60;101363.03;5030309;28;20025;-41
2022/07/19 06:57:52;;;;;;;37.42;6.95;;;;;;;13.93;77.23;101355.34;5031779;28;20025;-42
2022/07/19 07:00:18;;;;;;;22.83;6.35;;;;;;;13.89;77.65;101360.34;5019257;28;20029;-42
2022/07/19 07:02:45;;;;;;;25.40;6.72;;;;;;;13.95;77.37;101361.34;5031716;28;20455;-42
2022/07/19 07:05:12;;;;;;;32.35;8.23;;;;;;;13.79;78.04;101357.28;5030081;28;20025;-41
2022/07/19 07:07:39;;;;;;;40.97;8.32;;;;;;;13.87;77.69;101358.91;5034301;28;20033;-42
2022/07/19 07:10:07;;;;;;;29.83;7.10;;;;;;;13.68;78.40;101363.34;5033743;28;20429;-42
2022/07/19 07:12:34;;;;;;;25.35;7.57;;;;;;;13.72;78.43;101361.88;5035289;28;20043;-44
2022/07/19 07:15:00;;;;;;;26.92;6.88;;;;;;;13.75;78.35;101361.44;5034270;28;20033;-41
2022/07/19 07:17:26;;;;;;;29.70;7.72;;;;;;;13.76;78.27;101357.72;5034647;28;20033;-42
2022/07/19 07:19:52;;;;;;;29.33;6.95;;;;;;;13.71;78.58;101370.97;5032143;28;20402;-42
2022/07/19 07:22:19;;;;;;;29.63;7.90;;;;;;;13.71;78.69;101369.13;5035215;28;20036;-41
2022/07/19 07:24:45;;;;;;;29.15;7.45;;;;;;;13.65;79.10;101378.03;5034631;28;20024;-42
2022/07/19 07:27:11;;;;;;;31.48;7.78;;;;;;;13.71;79.23;101376.34;5035370;28;20413;-43
2022/07/19 07:29:37;;;;;;;28.95;8.50;;;;;;;13.52;80.02;101374.59;5034644;28;20021;-42
2022/07/19 07:32:04;;;;;;;29.35;7.78;;;;;;;13.60;79.23;101380.56;5035013;28;20108;-42
2022/07/19 07:34:30;;;;;;;30.67;7.50;;;;;;;13.48;80.21;101377.69;5034904;28;20029;-42
2022/07/19 07:36:56;;;;;;;35.13;8.27;;;;;;;13.56;79.73;101379.34;5034474;28;20017;-42
2022/07/19 07:39:23;;;;;;;27.95;7.80;;;;;;;13.57;79.65;101378.28;5034694;28;20489;-41
2022/07/19 07:41:49;;;;;;;30.60;8.73;;;;;;;13.48;79.96;101377.69;5034472;28;20079;-41
2022/07/19 07:44:15;;;;;;;28.83;7.22;;;;;;;13.56;79.90;101381.19;5017075;28;20586;-42
2022/07/19 07:46:42;;;;;;;29.88;7.50;;;;;;;13.58;79.47;101381.81;5034716;28;20053;-41
2022/07/19 07:49:08;;;;;;;31.50;7.97;;;;;;;13.52;79.54;101371.91;5034497;28;20048;-43
2022/07/19 07:51:35;;;;;;;32.97;7.15;;;;;;;13.54;79.79;101375.19;5034293;28;20079;-42
2022/07/19 07:54:01;;;;;;;26.75;8.32;;;;;;;13.46;80.05;101373.56;5034443;28;20026;-46
2022/07/19 07:56:28;;;;;;;33.15;7.32;;;;;;;13.50;79.95;101377.50;5034846;28;20025;-43
2022/07/19 07:58:54;;;;;;;31.00;7.25;;;;;;;13.60;79.46;101372.50;5028404;28;20026;-43
2022/07/19 08:01:20;;;;;;;35.17;8.60;;;;;;;13.45;79.70;101375.44;5014054;28;20041;-41
2022/07/19 08:03:47;;;;;;;28.92;7.63;;;;;;;13.53;79.44;101376.22;5014525;28;20029;-42
2022/07/19 08:06:15;;;;;;;27.90;8.05;;;;;;;13.44;79.66;101375.66;5022086;28;20026;-42
2022/07/19 08:08:41;;;;;;;30.05;7.35;;;;;;;13.55;79.33;101382.22;5032634;28;20481;-42
2022/07/19 08:11:08;;;;;;;26.13;6.72;;;;;;;13.46;79.45;101371.69;5033880;28;20541;-42
2022/07/19 08:13:34;;;;;;;29.27;7.38;;;;;;;13.45;79.56;101371.94;5032604;28;20055;-42
2022/07/19 08:16:00;;;;;;;42.40;8.43;;;;;;;13.47;79.66;101375.22;5034164;28;20481;-42
2022/07/19 08:18:26;;;;;;;35.83;7.38;;;;;;;13.37;79.94;101366.75;5032691;28;20037;-42
2022/07/19 08:20:52;;;;;;;30.38;7.43;;;;;;;13.49;79.60;101373.13;5032389;28;20036;-42
2022/07/19 08:23:19;;;;;;;33.60;7.82;;;;;;;13.41;79.70;101376.06;5032240;28;20021;-42
2022/07/19 08:25:45;;;;;;;35.55;8.55;;;;;;;13.39;79.82;101373.59;5033743;28;20025;-43
2022/07/19 08:28:11;;;;;;;28.73;7.78;;;;;;;13.38;79.90;101363.03;5033067;28;20560;-42
2022/07/19 08:30:37;;;;;;;28.30;7.82;;;;;;;13.33;80.38;101352.94;5034042;28;20033;-42
2022/07/19 08:33:06;;;;;;;23.92;7.35;;;;;;;13.30;80.49;101356.03;5032644;28;20020;-42
2022/07/19 08:35:33;;;;;;;38.40;8.52;;;;;;;13.32;80.56;101361.19;5033551;28;20037;-41
2022/07/19 08:37:59;;;;;;;32.30;8.27;;;;;;;13.33;80.63;101358.31;5032448;28;20454;-43
2022/07/19 08:40:26;;;;;;;27.35;8.10;;;;;;;13.36;80.40;101363.25;5033531;28;20386;-43
2022/07/19 08:42:53;;;;;;;33.30;8.55;;;;;;;13.28;80.62;101366.19;5031633;28;20147;-45
2022/07/19 08:45:23;;;;;;;32.00;7.90;;;;;;;13.32;80.30;101364.69;5033671;28;20029;-43
2022/07/19 08:47:49;;;;;;;33.70;7.25;;;;;;;13.31;80.36;101357.69;5032803;28;20020;-42
2022/07/19 08:50:16;;;;;;;30.95;6.93;;;;;;;13.24;80.38;101353.38;5032168;28;20112;-42
2022/07/19 08:52:42;;;;;;;30.10;7.55;;;;;;;13.25;80.20;101353.16;5033936;28;20373;-42
2022/07/19 08:55:10;;;;;;;31.67;7.53;;;;;;;13.26;80.15;101352.09;5032618;28;20025;-43
2022/07/19 09:00:20;;;;;;;24.65;7.55;;;;;;;13.17;80.82;101351.50;5018961;28;20037;-42
2022/07/19 09:02:57;;;;;;;32.58;6.97;;;;;;;13.26;80.93;101353.97;5033146;28;20091;-41
2022/07/19 09:05:24;;;;;;;31.17;7.57;;;;;;;13.20;80.80;101350.22;5031953;28;20018;-42
2022/07/19 09:08:08;;;;;;;35.53;7.97;;;;;;;13.27;80.56;101345.72;5032125;28;20148;-42
2022/07/19 09:10:37;;;;;;;30.00;8.25;;;;;;;13.34;80.65;101348.38;5031586;28;20397;-42
2022/07/19 09:13:14;;;;;;;27.63;7.82;;;;;;;13.35;80.53;101340.09;5032977;28;20037;-42
2022/07/19 09:15:46;;;;;;;30.70;8.75;;;;;;;13.28;80.64;101344.69;5032130;28;20017;-42
2022/07/19 09:18:15;;;;;;;27.20;7.93;;;;;;;13.19;80.92;101340.53;5033017;28;20129;-42
2022/07/19 09:20:43;;;;;;;35.88;7.95;;;;;;;13.19;80.97;101340.53;5031178;28;20025;-42
2022/07/19 09:23:10;;;;;;;33.78;7.75;;;;;;;13.13;81.31;101344.06;5031749;28;20120;-42
2022/07/19 09:25:45;;;;;;;33.08;7.85;;;;;;;13.18;81.24;101355.00;5031917;28;20025;-42
2022/07/19 09:28:12;;;;;;;28.98;8.80;;;;;;;13.22;81.14;101350.91;5032645;28;20496;-41
2022/07/19 09:30:42;;;;;;;28.23;7.63;;;;;;;13.21;81.38;101351.91;5030629;28;20032;-43
2022/07/19 09:33:18;;;;;;;25.73;7.88;;;;;;;13.19;81.34;101349.41;5032263;28;20043;-42
2022/07/19 09:35:50;;;;;;;29.00;8.52;;;;;;;13.17;81.35;101350.66;5031490;28;20021;-42
2022/07/19 09:38:25;;;;;;;33.60;8.27;;;;;;;13.20;81.51;101355.59;5032604;28;20554;-42
2022/07/19 09:40:53;;;;;;;;;;;;;;;13.18;81.52;101352.31;5031635;28;20022;-42
2022/07/19 09:43:22;;;;;;;43.63;8.75;;;;;;;13.13;81.61;101344.06;5032251;28;19917;-43
2022/07/19 09:45:51;;;;;;;30.85;7.88;;;;;;;13.20;81.49;101351.06;5031664;28;20041;-43
2022/07/19 09:48:17;;;;;;;37.90;8.80;;;;;;;13.10;81.70;101348.00;5032272;28;20501;-42
2022/07/19 09:50:47;;;;;;;32.28;8.80;;;;;;;13.09;81.92;101349.00;5030919;28;20447;-43
2022/07/19 09:53:15;;;;;;;32.88;7.97;;;;;;;13.11;81.65;101343.44;5032072;28;20025;-42
2022/07/19 09:55:42;;;;;;;31.52;9.15;;;;;;;13.13;81.45;101342.19;5031075;28;20132;-42
2022/07/19 09:58:09;;;;;;;30.48;8.82;;;;;;;13.05;81.93;101341.59;5030725;28;20378;-42
2022/07/19 10:00:38;;;;;;;34.50;8.27;;;;;;;13.07;81.78;101343.03;5021668;28;20104;-42
2022/07/19 10:03:07;;;;;;;37.92;9.23;;;;;;;13.07;82.02;101344.91;5030327;28;20065;-42
2022/07/19 10:05:33;;;;;;;37.13;9.50;;;;;;;13.03;81.80;101347.16;5031307;28;20121;-42
2022/07/19 10:08:00;;;;;;;25.60;7.32;;;;;;;13.02;82.24;101344.69;5031199;28;20058;-42
2022/07/19 10:10:30;;;;;;;36.03;8.82;;;;;;;13.02;81.77;101350.06;5030816;28;20041;-42
2022/07/19 10:12:57;;;;;;;33.58;8.18;;;;;;;13.04;81.48;101356.06;5031759;28;20091;-42
2022/07/19 10:15:25;;;;;;;37.78;8.48;;;;;;;12.85;82.32;101361.25;5030878;28;20075;-42
2022/07/19 10:18:20;;;;;;;35.60;7.75;;;;;;;12.99;82.20;101356.69;5031641;28;20474;-42
2022/07/19 10:20:47;;;;;;;41.90;8.55;;;;;;;12.89;82.71;101350.94;5030865;28;20041;-44
2022/07/19 10:23:13;;;;;;;32.00;8.40;;;;;;;12.99;81.98;101366.59;5030651;28;20055;-42
2022/07/19 10:25:47;;;;;;;29.48;7.38;;;;;;;13.05;81.75;101361.25;5029754;28;20145;-42
2022/07/19 10:28:43;;;;;;;30.02;6.50;;;;;;;12.94;81.73;101362.72;5031367;28;20108;-41
2022/07/19 10:31:26;;;;;;;27.95;7.75;;;;;;;12.97;81.47;101363.31;5014095;28;20037;-42
2022/07/19 10:34:01;;;;;;;34.47;7.00;;;;;;;12.91;81.78;101365.78;5012018;28;20042;-42
2022/07/19 10:36:43;;;;;;;31.73;8.20;;;;;;;12.78;82.06;101362.31;5012057;28;20113;-43
2022/07/19 10:39:21;;;;;;;29.48;7.88;;;;;;;12.82;82.40;101361.66;5011718;28;20030;-42
2022/07/19 10:42:10;;;;;;;45.10;8.07;;;;;;;12.84;82.62;101364.16;5011455;28;20052;-45
2022/07/19 10:44:57;;;;;;;28.23;7.70;;;;;;;12.81;82.59;101373.44;5026747;28;20041;-42
2022/07/19 10:47:46;;;;;;;33.28;7.53;;;;;;;12.73;82.53;101376.34;5004119;28;20045;-42
2022/07/19 10:50:19;;;;;;;30.25;8.15;;;;;;;12.63;83.09;101384.00;5031424;28;20606;-43
2022/07/19 10:52:46;;;;;;;35.83;8.40;;;;;;;12.71;83.26;101378.41;5031112;28;20132;-44
2022/07/19 10:55:19;;;;;;;35.17;6.88;;;;;;;12.76;82.79;101383.97;5031673;28;20352;-42
2022/07/19 10:57:51;;;;;;;27.55;6.88;;;;;;;12.68;83.42;101381.53;5028655;28;20052;-42
2022/07/19 11:00:26;;;;;;;31.38;8.23;;;;;;;12.65;83.60;101381.91;5015186;28;20029;-42
2022/07/19 11:03:21;;;;;;;27.00;7.88;;;;;;;12.64;84.00;101380.28;5031407;28;20036;-42
2022/07/19 11:06:02;;;;;;;35.63;8.30;;;;;;;12.72;83.83;101377.41;5031449;28;20029;-42
2022/07/19 11:08:39;;;;;;;32.95;7.88;;;;;;;12.72;84.20;101382.75;5031535;28;20022;-41
2022/07/19 11:11:08;;;;;;;34.92;8.68;;;;;;;12.68;84.34;101386.88;5031136;28;20045;-43
2022/07/19 11:13:36;;;;;;;33.85;7.78;;;;;;;12.75;84.16;101385.03;5031057;28;20417;-42
2022/07/19 11:16:03;;;;;;;41.55;8.15;;;;;;;12.78;83.87;101389.16;5031079;28;20030;-42
2022/07/19 11:18:30;;;;;;;27.52;7.47;;;;;;;12.74;83.57;101391.44;5031372;28;20033;-43
2022/07/19 11:20:58;;;;;;;22.98;6.78;;;;;;;12.84;83.66;101396.41;5031089;28;20470;-42
2022/07/19 11:23:28;;;;;;;29.13;7.40;;;;;;;12.86;83.55;101397.84;5031114;28;20045;-42
2022/07/19 11:26:12;;;;;;;23.85;7.20;;;;;;;12.72;84.04;101390.81;5031752;28;20081;-42